sensor_id;sensor_type;location;lat;lon;timestamp;P1;durP1;ratioP1;P2;durP2;ratioP2
79668;SDS011;69136;52.614;6.976;2023-05-10T00:02:24;1.30;;;1.00;;
79668;SDS011;69136;52.614;6.976;2023-05-10T00:05:09;0.68;;;0.50;;
79668;SDS011;69136;52.614;6.976;2023-05-10T00:07:53;1.58;;;0.80;;
79668;SDS011;69136;52.614;6.976;2023-05-10T00:10:37;1.10;;;0.82;;
79668;SDS011;69136;52.614;6.976;2023-05-10T00:13:21;1.50;;;0.90;;
79668;SDS011;69136;52.614;6.976;2023-05-10T00:16:05;0.82;;;0.60;;
79668;SDS011;69136;52.614;6.976;2023-05-10T00:18:49;0.75;;;0.75;;
79668;SDS011;69136;52.614;6.976;2023-05-10T00:21:33;1.33;;;0.75;;
79668;SDS011;69136;52.614;6.976;2023-05-10T00:24:17;1.50;;;0.82;;
79668;SDS011;69136;52.614;6.976;2023-05-10T00:27:01;0.95;;;0.80;;
79668;SDS011;69136;52.614;6.976;2023-05-10T00:29:48;2.15;;;0.90;;
79668;SDS011;69136;52.614;6.976;2023-05-10T00:32:32;1.48;;;0.82;;
79668;SDS011;69136;52.614;6.976;2023-05-10T00:35:16;0.80;;;0.70;;
79668;SDS011;69136;52.614;6.976;2023-05-10T00:38:00;1.73;;;0.80;;
79668;SDS011;69136;52.614;6.976;2023-05-10T00:40:44;0.93;;;0.82;;
79668;SDS011;69136;52.614;6.976;2023-05-10T00:43:36;0.60;;;0.60;;
79668;SDS011;69136;52.614;6.976;2023-05-10T00:46:21;0.82;;;0.82;;
79668;SDS011;69136;52.614;6.976;2023-05-10T00:49:05;0.60;;;0.60;;
79668;SDS011;69136;52.614;6.976;2023-05-10T00:51:50;0.88;;;0.80;;
79668;SDS011;69136;52.614;6.976;2023-05-10T00:54:34;1.52;;;1.00;;
79668;SDS011;69136;52.614;6.976;2023-05-10T00:57:18;1.35;;;0.82;;
79668;SDS011;69136;52.614;6.976;2023-05-10T01:00:02;0.55;;;0.55;;
79668;SDS011;69136;52.614;6.976;2023-05-10T01:02:47;0.88;;;0.80;;
79668;SDS011;69136;52.614;6.976;2023-05-10T01:05:31;2.10;;;0.90;;
79668;SDS011;69136;52.614;6.976;2023-05-10T01:08:15;0.93;;;0.70;;
79668;SDS011;69136;52.614;6.976;2023-05-10T01:11:00;1.17;;;0.73;;
79668;SDS011;69136;52.614;6.976;2023-05-10T01:13:44;1.92;;;0.80;;
79668;SDS011;69136;52.614;6.976;2023-05-10T01:16:34;1.05;;;0.90;;
79668;SDS011;69136;52.614;6.976;2023-05-10T01:19:30;0.90;;;0.80;;
79668;SDS011;69136;52.614;6.976;2023-05-10T01:22:22;1.00;;;0.82;;
79668;SDS011;69136;52.614;6.976;2023-05-10T01:25:29;1.23;;;0.93;;
79668;SDS011;69136;52.614;6.976;2023-05-10T01:34:47;1.63;;;0.82;;
79668;SDS011;69136;52.614;6.976;2023-05-10T01:43:59;1.58;;;0.80;;
79668;SDS011;69136;52.614;6.976;2023-05-10T01:46:48;1.20;;;1.05;;
79668;SDS011;69136;52.614;6.976;2023-05-10T01:49:39;1.38;;;1.20;;
79668;SDS011;69136;52.614;6.976;2023-05-10T01:52:30;1.08;;;0.88;;
79668;SDS011;69136;52.614;6.976;2023-05-10T01:55:18;1.42;;;1.02;;
79668;SDS011;69136;52.614;6.976;2023-05-10T01:58:04;1.10;;;0.93;;
79668;SDS011;69136;52.614;6.976;2023-05-10T02:00:50;1.95;;;1.50;;
79668;SDS011;69136;52.614;6.976;2023-05-10T02:03:36;1.02;;;0.90;;
79668;SDS011;69136;52.614;6.976;2023-05-10T02:06:22;1.10;;;1.00;;
79668;SDS011;69136;52.614;6.976;2023-05-10T02:09:07;0.80;;;0.80;;
79668;SDS011;69136;52.614;6.976;2023-05-10T02:11:52;1.92;;;1.10;;
79668;SDS011;69136;52.614;6.976;2023-05-10T02:14:37;1.30;;;1.15;;
79668;SDS011;69136;52.614;6.976;2023-05-10T02:17:23;1.00;;;0.90;;
79668;SDS011;69136;52.614;6.976;2023-05-10T02:20:09;2.28;;;1.08;;
79668;SDS011;69136;52.614;6.976;2023-05-10T02:22:54;1.40;;;1.10;;
79668;SDS011;69136;52.614;6.976;2023-05-10T02:25:40;1.20;;;1.10;;
79668;SDS011;69136;52.614;6.976;2023-05-10T02:28:25;1.30;;;1.20;;
79668;SDS011;69136;52.614;6.976;2023-05-10T02:31:09;1.25;;;1.05;;
79668;SDS011;69136;52.614;6.976;2023-05-10T02:33:56;1.20;;;1.10;;
79668;SDS011;69136;52.614;6.976;2023-05-10T02:36:42;1.58;;;1.27;;
79668;SDS011;69136;52.614;6.976;2023-05-10T02:39:27;2.03;;;1.33;;
79668;SDS011;69136;52.614;6.976;2023-05-10T02:42:13;1.35;;;1.17;;
79668;SDS011;69136;52.614;6.976;2023-05-10T02:45:01;1.80;;;1.35;;
79668;SDS011;69136;52.614;6.976;2023-05-10T02:47:48;1.33;;;1.23;;
79668;SDS011;69136;52.614;6.976;2023-05-10T02:50:33;2.33;;;1.70;;
79668;SDS011;69136;52.614;6.976;2023-05-10T02:53:22;2.17;;;1.48;;
79668;SDS011;69136;52.614;6.976;2023-05-10T02:56:10;1.55;;;1.45;;
79668;SDS011;69136;52.614;6.976;2023-05-10T02:58:58;1.73;;;1.63;;
79668;SDS011;69136;52.614;6.976;2023-05-10T03:01:42;1.45;;;1.35;;
79668;SDS011;69136;52.614;6.976;2023-05-10T03:04:26;2.05;;;1.55;;
79668;SDS011;69136;52.614;6.976;2023-05-10T03:07:13;1.55;;;1.33;;
79668;SDS011;69136;52.614;6.976;2023-05-10T03:09:58;1.60;;;1.40;;
79668;SDS011;69136;52.614;6.976;2023-05-10T03:12:56;1.77;;;1.60;;
79668;SDS011;69136;52.614;6.976;2023-05-10T03:16:01;1.35;;;1.25;;
79668;SDS011;69136;52.614;6.976;2023-05-10T03:19:01;1.25;;;1.15;;
79668;SDS011;69136;52.614;6.976;2023-05-10T03:21:52;1.45;;;1.35;;
79668;SDS011;69136;52.614;6.976;2023-05-10T03:24:37;1.42;;;1.33;;
79668;SDS011;69136;52.614;6.976;2023-05-10T03:27:23;2.47;;;1.25;;
79668;SDS011;69136;52.614;6.976;2023-05-10T03:30:10;1.42;;;1.33;;
79668;SDS011;69136;52.614;6.976;2023-05-10T03:32:55;1.25;;;1.15;;
79668;SDS011;69136;52.614;6.976;2023-05-10T03:35:40;1.10;;;0.90;;
79668;SDS011;69136;52.614;6.976;2023-05-10T03:38:25;1.38;;;1.15;;
79668;SDS011;69136;52.614;6.976;2023-05-10T03:41:09;1.65;;;1.00;;
79668;SDS011;69136;52.614;6.976;2023-05-10T03:43:54;1.35;;;1.05;;
79668;SDS011;69136;52.614;6.976;2023-05-10T03:46:38;1.55;;;1.10;;
79668;SDS011;69136;52.614;6.976;2023-05-10T03:49:22;1.70;;;1.10;;
79668;SDS011;69136;52.614;6.976;2023-05-10T03:52:07;1.42;;;1.20;;
79668;SDS011;69136;52.614;6.976;2023-05-10T03:54:52;1.48;;;0.90;;
79668;SDS011;69136;52.614;6.976;2023-05-10T03:57:36;1.17;;;1.08;;
79668;SDS011;69136;52.614;6.976;2023-05-10T04:00:21;0.77;;;0.75;;
79668;SDS011;69136;52.614;6.976;2023-05-10T04:03:08;1.00;;;0.95;;
79668;SDS011;69136;52.614;6.976;2023-05-10T04:06:00;0.93;;;0.88;;
79668;SDS011;69136;52.614;6.976;2023-05-10T04:08:45;1.63;;;1.20;;
79668;SDS011;69136;52.614;6.976;2023-05-10T04:11:29;1.52;;;1.02;;
79668;SDS011;69136;52.614;6.976;2023-05-10T04:14:13;1.17;;;1.08;;
79668;SDS011;69136;52.614;6.976;2023-05-10T04:16:57;1.52;;;1.27;;
79668;SDS011;69136;52.614;6.976;2023-05-10T04:19:40;1.30;;;1.08;;
79668;SDS011;69136;52.614;6.976;2023-05-10T04:22:24;1.10;;;1.00;;
79668;SDS011;69136;52.614;6.976;2023-05-10T04:25:08;1.08;;;0.98;;
79668;SDS011;69136;52.614;6.976;2023-05-10T04:27:52;0.95;;;0.75;;
79668;SDS011;69136;52.614;6.976;2023-05-10T04:30:36;1.33;;;0.93;;
79668;SDS011;69136;52.614;6.976;2023-05-10T04:33:23;1.85;;;1.25;;
79668;SDS011;69136;52.614;6.976;2023-05-10T04:36:07;1.35;;;1.02;;
79668;SDS011;69136;52.614;6.976;2023-05-10T04:38:52;1.00;;;0.90;;
79668;SDS011;69136;52.614;6.976;2023-05-10T04:41:37;2.17;;;1.15;;
79668;SDS011;69136;52.614;6.976;2023-05-10T04:44:22;4.45;;;1.08;;
79668;SDS011;69136;52.614;6.976;2023-05-10T04:47:06;1.63;;;0.80;;
79668;SDS011;69136;52.614;6.976;2023-05-10T04:49:50;3.25;;;0.70;;
79668;SDS011;69136;52.614;6.976;2023-05-10T04:52:34;0.90;;;0.70;;
79668;SDS011;69136;52.614;6.976;2023-05-10T04:55:18;1.10;;;0.90;;
79668;SDS011;69136;52.614;6.976;2023-05-10T04:58:02;1.50;;;0.90;;
79668;SDS011;69136;52.614;6.976;2023-05-10T05:00:46;2.58;;;0.95;;
79668;SDS011;69136;52.614;6.976;2023-05-10T05:03:30;2.22;;;0.93;;
79668;SDS011;69136;52.614;6.976;2023-05-10T05:06:14;1.83;;;0.90;;
79668;SDS011;69136;52.614;6.976;2023-05-10T05:08:58;2.40;;;1.05;;
79668;SDS011;69136;52.614;6.976;2023-05-10T05:11:42;3.67;;;0.90;;
79668;SDS011;69136;52.614;6.976;2023-05-10T05:14:26;2.08;;;0.98;;
79668;SDS011;69136;52.614;6.976;2023-05-10T05:17:10;1.73;;;1.02;;
79668;SDS011;69136;52.614;6.976;2023-05-10T05:19:54;3.70;;;0.95;;
79668;SDS011;69136;52.614;6.976;2023-05-10T05:22:39;0.98;;;0.80;;
79668;SDS011;69136;52.614;6.976;2023-05-10T05:25:23;1.60;;;0.95;;
79668;SDS011;69136;52.614;6.976;2023-05-10T05:28:07;2.70;;;0.80;;
79668;SDS011;69136;52.614;6.976;2023-05-10T05:30:52;1.17;;;0.73;;
79668;SDS011;69136;52.614;6.976;2023-05-10T05:33:37;1.40;;;0.90;;
79668;SDS011;69136;52.614;6.976;2023-05-10T05:36:21;2.08;;;0.90;;
79668;SDS011;69136;52.614;6.976;2023-05-10T05:39:06;4.05;;;1.27;;
79668;SDS011;69136;52.614;6.976;2023-05-10T05:41:50;2.33;;;0.80;;
79668;SDS011;69136;52.614;6.976;2023-05-10T05:44:34;3.42;;;1.10;;
79668;SDS011;69136;52.614;6.976;2023-05-10T05:47:17;9.05;;;2.95;;
79668;SDS011;69136;52.614;6.976;2023-05-10T05:50:01;3.88;;;1.63;;
79668;SDS011;69136;52.614;6.976;2023-05-10T05:52:45;3.35;;;1.30;;
79668;SDS011;69136;52.614;6.976;2023-05-10T05:55:30;3.58;;;1.33;;
79668;SDS011;69136;52.614;6.976;2023-05-10T05:58:15;3.60;;;1.67;;
79668;SDS011;69136;52.614;6.976;2023-05-10T06:00:59;6.35;;;1.85;;
79668;SDS011;69136;52.614;6.976;2023-05-10T06:03:43;7.88;;;1.90;;
79668;SDS011;69136;52.614;6.976;2023-05-10T06:06:27;5.13;;;2.00;;
79668;SDS011;69136;52.614;6.976;2023-05-10T06:09:11;4.80;;;1.60;;
79668;SDS011;69136;52.614;6.976;2023-05-10T06:11:56;5.55;;;1.50;;
79668;SDS011;69136;52.614;6.976;2023-05-10T06:14:41;3.95;;;1.35;;
79668;SDS011;69136;52.614;6.976;2023-05-10T06:17:25;2.75;;;1.15;;
79668;SDS011;69136;52.614;6.976;2023-05-10T06:20:10;3.85;;;1.52;;
79668;SDS011;69136;52.614;6.976;2023-05-10T06:22:54;4.45;;;1.55;;
79668;SDS011;69136;52.614;6.976;2023-05-10T06:25:38;4.00;;;1.23;;
79668;SDS011;69136;52.614;6.976;2023-05-10T06:28:22;3.85;;;1.33;;
79668;SDS011;69136;52.614;6.976;2023-05-10T06:31:06;2.80;;;0.93;;
79668;SDS011;69136;52.614;6.976;2023-05-10T06:33:51;5.00;;;1.58;;
79668;SDS011;69136;52.614;6.976;2023-05-10T06:36:35;3.10;;;1.05;;
79668;SDS011;69136;52.614;6.976;2023-05-10T06:39:19;2.58;;;1.05;;
79668;SDS011;69136;52.614;6.976;2023-05-10T06:42:03;2.83;;;0.98;;
79668;SDS011;69136;52.614;6.976;2023-05-10T06:44:50;2.80;;;0.88;;
79668;SDS011;69136;52.614;6.976;2023-05-10T06:47:34;4.85;;;1.10;;
79668;SDS011;69136;52.614;6.976;2023-05-10T06:50:18;4.03;;;1.42;;
79668;SDS011;69136;52.614;6.976;2023-05-10T06:53:02;3.90;;;1.20;;
79668;SDS011;69136;52.614;6.976;2023-05-10T06:55:48;4.93;;;1.20;;
79668;SDS011;69136;52.614;6.976;2023-05-10T06:58:32;2.55;;;1.10;;
79668;SDS011;69136;52.614;6.976;2023-05-10T07:01:17;4.32;;;1.45;;
79668;SDS011;69136;52.614;6.976;2023-05-10T07:04:01;4.55;;;1.38;;
79668;SDS011;69136;52.614;6.976;2023-05-10T07:06:46;3.90;;;0.80;;
79668;SDS011;69136;52.614;6.976;2023-05-10T07:09:30;4.47;;;1.05;;
79668;SDS011;69136;52.614;6.976;2023-05-10T07:12:14;3.67;;;1.15;;
79668;SDS011;69136;52.614;6.976;2023-05-10T07:14:58;2.03;;;1.10;;
79668;SDS011;69136;52.614;6.976;2023-05-10T07:17:42;3.22;;;0.90;;
79668;SDS011;69136;52.614;6.976;2023-05-10T07:20:26;3.17;;;1.15;;
79668;SDS011;69136;52.614;6.976;2023-05-10T07:23:10;4.43;;;1.05;;
79668;SDS011;69136;52.614;6.976;2023-05-10T07:25:54;5.50;;;1.63;;
79668;SDS011;69136;52.614;6.976;2023-05-10T07:28:39;3.70;;;0.73;;
79668;SDS011;69136;52.614;6.976;2023-05-10T07:31:23;1.73;;;0.85;;
79668;SDS011;69136;52.614;6.976;2023-05-10T07:34:07;4.03;;;1.02;;
79668;SDS011;69136;52.614;6.976;2023-05-10T07:36:51;1.75;;;1.27;;
79668;SDS011;69136;52.614;6.976;2023-05-10T07:39:35;3.85;;;0.98;;
79668;SDS011;69136;52.614;6.976;2023-05-10T07:42:19;2.38;;;0.95;;
79668;SDS011;69136;52.614;6.976;2023-05-10T07:45:03;1.80;;;0.85;;
79668;SDS011;69136;52.614;6.976;2023-05-10T07:47:48;3.15;;;1.30;;
79668;SDS011;69136;52.614;6.976;2023-05-10T07:50:33;2.15;;;0.90;;
79668;SDS011;69136;52.614;6.976;2023-05-10T07:53:17;2.97;;;1.00;;
79668;SDS011;69136;52.614;6.976;2023-05-10T07:56:20;2.17;;;1.35;;
79668;SDS011;69136;52.614;6.976;2023-05-10T07:59:04;2.40;;;1.00;;
79668;SDS011;69136;52.614;6.976;2023-05-10T08:01:50;3.33;;;1.02;;
79668;SDS011;69136;52.614;6.976;2023-05-10T08:04:34;4.75;;;1.33;;
79668;SDS011;69136;52.614;6.976;2023-05-10T08:07:19;1.75;;;1.25;;
79668;SDS011;69136;52.614;6.976;2023-05-10T08:10:03;2.58;;;1.20;;
79668;SDS011;69136;52.614;6.976;2023-05-10T08:12:48;2.50;;;1.20;;
79668;SDS011;69136;52.614;6.976;2023-05-10T08:15:32;2.42;;;1.20;;
79668;SDS011;69136;52.614;6.976;2023-05-10T08:18:17;3.05;;;0.93;;
79668;SDS011;69136;52.614;6.976;2023-05-10T08:21:00;2.13;;;0.80;;
79668;SDS011;69136;52.614;6.976;2023-05-10T08:23:45;2.00;;;1.00;;
79668;SDS011;69136;52.614;6.976;2023-05-10T08:26:29;2.38;;;1.00;;
79668;SDS011;69136;52.614;6.976;2023-05-10T08:29:13;4.18;;;1.13;;
79668;SDS011;69136;52.614;6.976;2023-05-10T08:31:57;2.47;;;1.10;;
79668;SDS011;69136;52.614;6.976;2023-05-10T08:34:41;2.25;;;1.15;;
79668;SDS011;69136;52.614;6.976;2023-05-10T08:37:25;2.15;;;0.73;;
79668;SDS011;69136;52.614;6.976;2023-05-10T08:40:10;4.50;;;1.00;;
79668;SDS011;69136;52.614;6.976;2023-05-10T08:42:58;2.28;;;1.13;;
79668;SDS011;69136;52.614;6.976;2023-05-10T08:45:50;1.63;;;0.98;;
79668;SDS011;69136;52.614;6.976;2023-05-10T08:48:35;3.13;;;0.70;;
79668;SDS011;69136;52.614;6.976;2023-05-10T08:51:24;2.38;;;0.88;;
79668;SDS011;69136;52.614;6.976;2023-05-10T08:54:10;1.38;;;0.82;;
79668;SDS011;69136;52.614;6.976;2023-05-10T08:56:54;1.83;;;1.08;;
79668;SDS011;69136;52.614;6.976;2023-05-10T08:59:38;1.83;;;0.85;;
79668;SDS011;69136;52.614;6.976;2023-05-10T09:02:23;3.05;;;0.90;;
79668;SDS011;69136;52.614;6.976;2023-05-10T09:05:07;1.65;;;0.80;;
79668;SDS011;69136;52.614;6.976;2023-05-10T09:07:52;2.08;;;0.65;;
79668;SDS011;69136;52.614;6.976;2023-05-10T09:10:38;2.42;;;0.95;;
79668;SDS011;69136;52.614;6.976;2023-05-10T09:13:23;2.40;;;0.73;;
79668;SDS011;69136;52.614;6.976;2023-05-10T09:16:08;1.75;;;0.93;;
79668;SDS011;69136;52.614;6.976;2023-05-10T09:18:53;2.05;;;0.80;;
79668;SDS011;69136;52.614;6.976;2023-05-10T09:21:37;1.38;;;0.80;;
79668;SDS011;69136;52.614;6.976;2023-05-10T09:24:28;1.45;;;0.77;;
79668;SDS011;69136;52.614;6.976;2023-05-10T09:27:13;1.35;;;0.80;;
79668;SDS011;69136;52.614;6.976;2023-05-10T09:29:57;1.15;;;0.75;;
79668;SDS011;69136;52.614;6.976;2023-05-10T09:32:42;1.40;;;0.75;;
79668;SDS011;69136;52.614;6.976;2023-05-10T09:35:28;2.25;;;0.93;;
79668;SDS011;69136;52.614;6.976;2023-05-10T09:38:14;2.05;;;0.90;;
79668;SDS011;69136;52.614;6.976;2023-05-10T09:40:58;2.50;;;1.10;;
79668;SDS011;69136;52.614;6.976;2023-05-10T09:43:42;1.70;;;0.75;;
79668;SDS011;69136;52.614;6.976;2023-05-10T09:46:26;1.75;;;0.93;;
79668;SDS011;69136;52.614;6.976;2023-05-10T09:49:14;1.30;;;0.90;;
79668;SDS011;69136;52.614;6.976;2023-05-10T09:52:05;1.42;;;1.05;;
79668;SDS011;69136;52.614;6.976;2023-05-10T09:54:53;2.78;;;1.17;;
79668;SDS011;69136;52.614;6.976;2023-05-10T09:57:38;2.38;;;1.50;;
79668;SDS011;69136;52.614;6.976;2023-05-10T10:00:22;3.50;;;1.95;;
79668;SDS011;69136;52.614;6.976;2023-05-10T10:03:11;3.53;;;2.38;;
79668;SDS011;69136;52.614;6.976;2023-05-10T10:05:57;8.40;;;4.38;;
79668;SDS011;69136;52.614;6.976;2023-05-10T10:08:41;13.93;;;6.35;;
79668;SDS011;69136;52.614;6.976;2023-05-10T10:11:25;15.38;;;7.35;;
79668;SDS011;69136;52.614;6.976;2023-05-10T10:14:09;12.55;;;7.10;;
79668;SDS011;69136;52.614;6.976;2023-05-10T10:16:55;14.18;;;7.28;;
79668;SDS011;69136;52.614;6.976;2023-05-10T10:19:39;15.60;;;7.72;;
79668;SDS011;69136;52.614;6.976;2023-05-10T10:22:23;15.05;;;8.68;;
79668;SDS011;69136;52.614;6.976;2023-05-10T10:25:08;14.63;;;8.07;;
79668;SDS011;69136;52.614;6.976;2023-05-10T10:30:42;13.20;;;7.22;;
79668;SDS011;69136;52.614;6.976;2023-05-10T10:33:48;14.43;;;7.18;;
79668;SDS011;69136;52.614;6.976;2023-05-10T10:36:47;13.73;;;6.93;;
79668;SDS011;69136;52.614;6.976;2023-05-10T10:39:31;15.70;;;8.20;;
79668;SDS011;69136;52.614;6.976;2023-05-10T10:42:37;15.43;;;7.13;;
79668;SDS011;69136;52.614;6.976;2023-05-10T10:45:29;11.45;;;6.60;;
79668;SDS011;69136;52.614;6.976;2023-05-10T10:48:23;12.85;;;6.90;;
79668;SDS011;69136;52.614;6.976;2023-05-10T10:51:07;13.13;;;6.40;;
79668;SDS011;69136;52.614;6.976;2023-05-10T10:53:51;13.10;;;6.53;;
79668;SDS011;69136;52.614;6.976;2023-05-10T10:56:35;12.55;;;6.03;;
79668;SDS011;69136;52.614;6.976;2023-05-10T10:59:26;13.20;;;6.53;;
79668;SDS011;69136;52.614;6.976;2023-05-10T11:02:31;15.70;;;8.23;;
79668;SDS011;69136;52.614;6.976;2023-05-10T11:11:14;188.27;;;47.75;;
79668;SDS011;69136;52.614;6.976;2023-05-10T11:14:02;179.13;;;47.35;;
79668;SDS011;69136;52.614;6.976;2023-05-10T11:16:47;167.80;;;48.42;;
79668;SDS011;69136;52.614;6.976;2023-05-10T11:19:32;159.27;;;44.92;;
79668;SDS011;69136;52.614;6.976;2023-05-10T11:22:16;149.15;;;42.25;;
79668;SDS011;69136;52.614;6.976;2023-05-10T11:25:01;141.40;;;38.53;;
79668;SDS011;69136;52.614;6.976;2023-05-10T11:27:45;115.43;;;34.55;;
79668;SDS011;69136;52.614;6.976;2023-05-10T11:30:31;115.38;;;33.88;;
79668;SDS011;69136;52.614;6.976;2023-05-10T11:33:16;118.20;;;33.13;;
79668;SDS011;69136;52.614;6.976;2023-05-10T11:36:01;118.40;;;33.22;;
79668;SDS011;69136;52.614;6.976;2023-05-10T11:38:45;123.97;;;34.53;;
79668;SDS011;69136;52.614;6.976;2023-05-10T11:41:30;112.82;;;30.88;;
79668;SDS011;69136;52.614;6.976;2023-05-10T11:44:14;100.25;;;30.25;;
79668;SDS011;69136;52.614;6.976;2023-05-10T11:46:59;101.90;;;29.25;;
79668;SDS011;69136;52.614;6.976;2023-05-10T11:49:44;98.82;;;29.67;;
79668;SDS011;69136;52.614;6.976;2023-05-10T11:52:29;98.78;;;34.00;;
79668;SDS011;69136;52.614;6.976;2023-05-10T11:55:19;100.50;;;32.35;;
79668;SDS011;69136;52.614;6.976;2023-05-10T11:58:04;91.80;;;34.20;;
79668;SDS011;69136;52.614;6.976;2023-05-10T12:00:48;91.18;;;35.13;;
79668;SDS011;69136;52.614;6.976;2023-05-10T12:03:33;91.55;;;33.38;;
79668;SDS011;69136;52.614;6.976;2023-05-10T12:06:18;86.28;;;33.97;;
79668;SDS011;69136;52.614;6.976;2023-05-10T12:09:06;79.50;;;32.50;;
79668;SDS011;69136;52.614;6.976;2023-05-10T12:11:54;85.95;;;34.47;;
79668;SDS011;69136;52.614;6.976;2023-05-10T12:14:39;82.40;;;34.60;;
79668;SDS011;69136;52.614;6.976;2023-05-10T12:17:27;89.60;;;33.47;;
79668;SDS011;69136;52.614;6.976;2023-05-10T12:20:21;84.05;;;33.15;;
79668;SDS011;69136;52.614;6.976;2023-05-10T12:23:08;85.28;;;33.58;;
79668;SDS011;69136;52.614;6.976;2023-05-10T12:25:53;76.85;;;32.25;;
79668;SDS011;69136;52.614;6.976;2023-05-10T12:28:38;72.38;;;32.08;;
79668;SDS011;69136;52.614;6.976;2023-05-10T12:31:23;75.35;;;31.15;;
79668;SDS011;69136;52.614;6.976;2023-05-10T12:34:07;83.47;;;31.15;;
79668;SDS011;69136;52.614;6.976;2023-05-10T12:36:52;76.22;;;30.40;;
79668;SDS011;69136;52.614;6.976;2023-05-10T12:39:40;75.93;;;30.90;;
79668;SDS011;69136;52.614;6.976;2023-05-10T12:42:24;73.88;;;29.98;;
79668;SDS011;69136;52.614;6.976;2023-05-10T12:45:09;65.25;;;28.73;;
79668;SDS011;69136;52.614;6.976;2023-05-10T12:47:53;70.18;;;27.70;;
79668;SDS011;69136;52.614;6.976;2023-05-10T12:50:37;62.33;;;27.40;;
79668;SDS011;69136;52.614;6.976;2023-05-10T12:53:21;65.82;;;26.35;;
79668;SDS011;69136;52.614;6.976;2023-05-10T12:56:05;56.97;;;25.90;;
79668;SDS011;69136;52.614;6.976;2023-05-10T12:58:50;68.22;;;25.50;;
79668;SDS011;69136;52.614;6.976;2023-05-10T13:01:34;57.88;;;25.85;;
79668;SDS011;69136;52.614;6.976;2023-05-10T13:04:18;68.35;;;25.80;;
79668;SDS011;69136;52.614;6.976;2023-05-10T13:07:02;65.40;;;26.10;;
79668;SDS011;69136;52.614;6.976;2023-05-10T13:09:46;60.72;;;25.58;;
79668;SDS011;69136;52.614;6.976;2023-05-10T13:12:30;60.15;;;26.38;;
79668;SDS011;69136;52.614;6.976;2023-05-10T13:15:14;54.78;;;24.38;;
79668;SDS011;69136;52.614;6.976;2023-05-10T13:17:58;55.67;;;23.20;;
79668;SDS011;69136;52.614;6.976;2023-05-10T13:20:42;57.90;;;25.17;;
79668;SDS011;69136;52.614;6.976;2023-05-10T13:23:27;54.55;;;23.17;;
79668;SDS011;69136;52.614;6.976;2023-05-10T13:26:12;51.78;;;22.90;;
79668;SDS011;69136;52.614;6.976;2023-05-10T13:28:56;53.83;;;23.75;;
79668;SDS011;69136;52.614;6.976;2023-05-10T13:31:40;56.83;;;26.42;;
79668;SDS011;69136;52.614;6.976;2023-05-10T13:34:24;52.60;;;23.17;;
79668;SDS011;69136;52.614;6.976;2023-05-10T13:37:08;53.53;;;23.33;;
79668;SDS011;69136;52.614;6.976;2023-05-10T13:39:52;56.15;;;22.85;;
79668;SDS011;69136;52.614;6.976;2023-05-10T13:42:36;50.08;;;22.63;;
79668;SDS011;69136;52.614;6.976;2023-05-10T13:45:21;54.70;;;21.42;;
79668;SDS011;69136;52.614;6.976;2023-05-10T13:48:05;49.33;;;20.08;;
79668;SDS011;69136;52.614;6.976;2023-05-10T13:50:49;51.33;;;20.63;;
79668;SDS011;69136;52.614;6.976;2023-05-10T13:53:33;47.13;;;20.33;;
79668;SDS011;69136;52.614;6.976;2023-05-10T13:56:17;43.85;;;19.58;;
79668;SDS011;69136;52.614;6.976;2023-05-10T13:59:01;44.08;;;19.13;;
79668;SDS011;69136;52.614;6.976;2023-05-10T14:01:46;46.22;;;19.80;;
79668;SDS011;69136;52.614;6.976;2023-05-10T14:04:30;44.80;;;19.30;;
79668;SDS011;69136;52.614;6.976;2023-05-10T14:07:15;42.75;;;17.98;;
79668;SDS011;69136;52.614;6.976;2023-05-10T14:09:59;39.40;;;18.58;;
79668;SDS011;69136;52.614;6.976;2023-05-10T14:12:43;42.20;;;18.63;;
79668;SDS011;69136;52.614;6.976;2023-05-10T14:15:27;44.92;;;19.55;;
79668;SDS011;69136;52.614;6.976;2023-05-10T14:18:12;38.17;;;17.80;;
79668;SDS011;69136;52.614;6.976;2023-05-10T14:20:56;41.20;;;17.73;;
79668;SDS011;69136;52.614;6.976;2023-05-10T14:23:40;37.20;;;16.92;;
79668;SDS011;69136;52.614;6.976;2023-05-10T14:26:24;33.88;;;16.27;;
79668;SDS011;69136;52.614;6.976;2023-05-10T14:29:08;36.60;;;17.63;;
79668;SDS011;69136;52.614;6.976;2023-05-10T14:31:52;35.25;;;17.67;;
79668;SDS011;69136;52.614;6.976;2023-05-10T14:34:36;38.88;;;17.63;;
79668;SDS011;69136;52.614;6.976;2023-05-10T14:37:20;35.15;;;16.90;;
79668;SDS011;69136;52.614;6.976;2023-05-10T14:40:05;36.17;;;15.98;;
79668;SDS011;69136;52.614;6.976;2023-05-10T14:42:50;32.53;;;15.15;;
79668;SDS011;69136;52.614;6.976;2023-05-10T14:45:34;39.67;;;16.08;;
79668;SDS011;69136;52.614;6.976;2023-05-10T14:48:19;34.60;;;16.65;;
79668;SDS011;69136;52.614;6.976;2023-05-10T14:51:05;32.13;;;15.13;;
79668;SDS011;69136;52.614;6.976;2023-05-10T14:53:50;38.90;;;16.15;;
79668;SDS011;69136;52.614;6.976;2023-05-10T14:56:34;35.33;;;15.70;;
79668;SDS011;69136;52.614;6.976;2023-05-10T14:59:18;34.67;;;15.60;;
79668;SDS011;69136;52.614;6.976;2023-05-10T15:02:02;31.15;;;15.02;;
79668;SDS011;69136;52.614;6.976;2023-05-10T15:04:47;32.67;;;15.45;;
79668;SDS011;69136;52.614;6.976;2023-05-10T15:07:30;29.88;;;13.75;;
79668;SDS011;69136;52.614;6.976;2023-05-10T15:10:15;34.45;;;14.60;;
79668;SDS011;69136;52.614;6.976;2023-05-10T15:13:00;33.58;;;15.73;;
79668;SDS011;69136;52.614;6.976;2023-05-10T15:15:44;33.17;;;14.77;;
79668;SDS011;69136;52.614;6.976;2023-05-10T15:18:28;34.47;;;16.23;;
79668;SDS011;69136;52.614;6.976;2023-05-10T15:21:12;29.45;;;13.48;;
79668;SDS011;69136;52.614;6.976;2023-05-10T15:23:56;29.60;;;13.90;;
79668;SDS011;69136;52.614;6.976;2023-05-10T15:26:40;25.50;;;13.27;;
79668;SDS011;69136;52.614;6.976;2023-05-10T15:29:25;25.38;;;12.73;;
79668;SDS011;69136;52.614;6.976;2023-05-10T15:32:09;28.52;;;14.25;;
79668;SDS011;69136;52.614;6.976;2023-05-10T15:34:53;30.25;;;13.43;;
79668;SDS011;69136;52.614;6.976;2023-05-10T15:37:38;31.92;;;12.82;;
79668;SDS011;69136;52.614;6.976;2023-05-10T15:40:22;29.85;;;13.70;;
79668;SDS011;69136;52.614;6.976;2023-05-10T15:43:06;30.73;;;13.45;;
79668;SDS011;69136;52.614;6.976;2023-05-10T15:45:50;31.50;;;13.93;;
79668;SDS011;69136;52.614;6.976;2023-05-10T15:48:34;38.33;;;13.48;;
79668;SDS011;69136;52.614;6.976;2023-05-10T15:51:19;28.25;;;13.13;;
79668;SDS011;69136;52.614;6.976;2023-05-10T15:54:03;34.03;;;13.52;;
79668;SDS011;69136;52.614;6.976;2023-05-10T15:56:50;30.98;;;13.40;;
79668;SDS011;69136;52.614;6.976;2023-05-10T15:59:34;30.10;;;12.90;;
79668;SDS011;69136;52.614;6.976;2023-05-10T16:02:18;28.48;;;12.43;;
79668;SDS011;69136;52.614;6.976;2023-05-10T16:05:03;27.80;;;12.52;;
79668;SDS011;69136;52.614;6.976;2023-05-10T16:07:47;26.33;;;12.98;;
79668;SDS011;69136;52.614;6.976;2023-05-10T16:10:31;27.08;;;13.35;;
79668;SDS011;69136;52.614;6.976;2023-05-10T16:13:16;23.98;;;11.27;;
79668;SDS011;69136;52.614;6.976;2023-05-10T16:16:00;27.70;;;11.38;;
79668;SDS011;69136;52.614;6.976;2023-05-10T16:18:44;33.08;;;11.95;;
79668;SDS011;69136;52.614;6.976;2023-05-10T16:21:29;23.50;;;10.05;;
79668;SDS011;69136;52.614;6.976;2023-05-10T16:24:14;22.38;;;10.63;;
79668;SDS011;69136;52.614;6.976;2023-05-10T16:26:58;27.00;;;10.40;;
79668;SDS011;69136;52.614;6.976;2023-05-10T16:29:42;20.80;;;9.35;;
79668;SDS011;69136;52.614;6.976;2023-05-10T16:32:26;21.35;;;9.07;;
79668;SDS011;69136;52.614;6.976;2023-05-10T16:35:10;20.33;;;9.07;;
79668;SDS011;69136;52.614;6.976;2023-05-10T16:37:56;22.02;;;9.43;;
79668;SDS011;69136;52.614;6.976;2023-05-10T16:40:41;19.17;;;8.82;;
79668;SDS011;69136;52.614;6.976;2023-05-10T16:43:25;24.42;;;9.20;;
79668;SDS011;69136;52.614;6.976;2023-05-10T16:46:09;24.48;;;8.77;;
79668;SDS011;69136;52.614;6.976;2023-05-10T16:48:54;19.15;;;8.82;;